sensor_id;sensor_type;location;lat;lon;timestamp;pressure;altitude;pressure_sealevel;temperature;humidity
63552;BME280;49698;48.072;7.800;2023-07-20T00:00:29;65961.13;;;-143.95;100.00
63552;BME280;49698;48.072;7.800;2023-07-20T00:03:12;65961.13;;;-143.95;100.00
63552;BME280;49698;48.072;7.800;2023-07-20T00:05:43;65961.13;;;-143.95;100.00
63552;BME280;49698;48.072;7.800;2023-07-20T00:08:11;65961.13;;;-143.95;100.00
63552;BME280;49698;48.072;7.800;2023-07-20T00:10:40;65961.13;;;-143.95;100.00
63552;BME280;49698;48.072;7.800;2023-07-20T00:13:09;65961.13;;;-143.95;100.00
63552;BME280;49698;48.072;7.800;2023-07-20T00:15:37;65961.13;;;-143.95;100.00
63552;BME280;49698;48.072;7.800;2023-07-20T00:18:05;65961.13;;;-143.95;100.00
63552;BME280;49698;48.072;7.800;2023-07-20T00:20:35;65961.13;;;-143.95;100.00
63552;BME280;49698;48.072;7.800;2023-07-20T00:23:03;65961.13;;;-143.95;100.00
63552;BME280;49698;48.072;7.800;2023-07-20T00:25:31;65961.13;;;-143.95;100.00
63552;BME280;49698;48.072;7.800;2023-07-20T00:28:00;65961.13;;;-143.95;100.00
63552;BME280;49698;48.072;7.800;2023-07-20T00:30:28;65961.13;;;-143.95;100.00
63552;BME280;49698;48.072;7.800;2023-07-20T00:32:56;65961.13;;;-143.95;100.00
63552;BME280;49698;48.072;7.800;2023-07-20T00:35:24;65961.13;;;-143.95;100.00
63552;BME280;49698;48.072;7.800;2023-07-20T00:37:53;65961.13;;;-143.95;100.00
63552;BME280;49698;48.072;7.800;2023-07-20T00:40:21;65961.13;;;-143.95;100.00
63552;BME280;49698;48.072;7.800;2023-07-20T00:42:50;65961.13;;;-143.95;100.00
63552;BME280;49698;48.072;7.800;2023-07-20T00:45:27;65961.13;;;-143.95;100.00
63552;BME280;49698;48.072;7.800;2023-07-20T00:47:55;65961.13;;;-143.95;100.00
63552;BME280;49698;48.072;7.800;2023-07-20T00:50:25;65961.13;;;-143.95;100.00
63552;BME280;49698;48.072;7.800;2023-07-20T00:52:55;65961.13;;;-143.95;100.00
63552;BME280;49698;48.072;7.800;2023-07-20T00:55:24;65961.13;;;-143.95;100.00
63552;BME280;49698;48.072;7.800;2023-07-20T00:57:53;65961.13;;;-143.95;100.00
63552;BME280;49698;48.072;7.800;2023-07-20T01:00:21;65961.13;;;-143.95;100.00
63552;BME280;49698;48.072;7.800;2023-07-20T01:02:51;65961.13;;;-143.95;100.00
63552;BME280;49698;48.072;7.800;2023-07-20T01:05:18;65961.13;;;-143.95;100.00
63552;BME280;49698;48.072;7.800;2023-07-20T01:07:57;65961.13;;;-143.95;100.00
63552;BME280;49698;48.072;7.800;2023-07-20T01:10:32;65961.13;;;-143.95;100.00
63552;BME280;49698;48.072;7.800;2023-07-20T01:13:01;65961.13;;;-143.95;100.00
63552;BME280;49698;48.072;7.800;2023-07-20T01:15:30;65961.13;;;-143.95;100.00
63552;BME280;49698;48.072;7.800;2023-07-20T01:17:59;65961.13;;;-143.95;100.00
63552;BME280;49698;48.072;7.800;2023-07-20T01:20:30;65961.13;;;-143.95;100.00
63552;BME280;49698;48.072;7.800;2023-07-20T01:23:16;65961.13;;;-143.95;100.00
63552;BME280;49698;48.072;7.800;2023-07-20T01:26:05;65961.13;;;-143.95;100.00
63552;BME280;49698;48.072;7.800;2023-07-20T01:31:36;65961.13;;;-143.95;100.00
63552;BME280;49698;48.072;7.800;2023-07-20T01:34:07;65961.13;;;-143.95;100.00
63552;BME280;49698;48.072;7.800;2023-07-20T01:36:38;65961.13;;;-143.95;100.00
63552;BME280;49698;48.072;7.800;2023-07-20T01:39:08;65961.13;;;-143.95;100.00
63552;BME280;49698;48.072;7.800;2023-07-20T01:41:36;65961.13;;;-143.95;100.00
63552;BME280;49698;48.072;7.800;2023-07-20T01:44:05;65961.13;;;-143.95;100.00
63552;BME280;49698;48.072;7.800;2023-07-20T01:46:35;65961.13;;;-143.95;100.00
63552;BME280;49698;48.072;7.800;2023-07-20T01:49:03;65961.13;;;-143.95;100.00
63552;BME280;49698;48.072;7.800;2023-07-20T01:51:31;65961.13;;;-143.95;100.00
63552;BME280;49698;48.072;7.800;2023-07-20T01:53:59;65961.13;;;-143.95;100.00
63552;BME280;49698;48.072;7.800;2023-07-20T01:56:28;65961.13;;;-143.95;100.00
63552;BME280;49698;48.072;7.800;2023-07-20T01:58:56;65961.13;;;-143.95;100.00
63552;BME280;49698;48.072;7.800;2023-07-20T02:01:24;65961.13;;;-143.95;100.00
63552;BME280;49698;48.072;7.800;2023-07-20T02:03:56;65961.13;;;-143.95;100.00
63552;BME280;49698;48.072;7.800;2023-07-20T02:06:25;65961.13;;;-143.95;100.00
63552;BME280;49698;48.072;7.800;2023-07-20T02:08:59;65961.13;;;-143.95;100.00
63552;BME280;49698;48.072;7.800;2023-07-20T02:11:30;65961.13;;;-143.95;100.00
63552;BME280;49698;48.072;7.800;2023-07-20T02:13:59;65961.13;;;-143.95;100.00
63552;BME280;49698;48.072;7.800;2023-07-20T02:16:27;65961.13;;;-143.95;100.00
63552;BME280;49698;48.072;7.800;2023-07-20T02:18:58;65961.13;;;-143.95;100.00
63552;BME280;49698;48.072;7.800;2023-07-20T02:21:26;65961.13;;;-143.95;100.00
63552;BME280;49698;48.072;7.800;2023-07-20T02:23:54;65961.13;;;-143.95;100.00
63552;BME280;49698;48.072;7.800;2023-07-20T02:26:22;65961.13;;;-143.95;100.00
63552;BME280;49698;48.072;7.800;2023-07-20T02:28:50;65961.13;;;-143.95;100.00
63552;BME280;49698;48.072;7.800;2023-07-20T02:31:18;65961.13;;;-143.95;100.00
63552;BME280;49698;48.072;7.800;2023-07-20T02:33:47;65961.13;;;-143.95;100.00
63552;BME280;49698;48.072;7.800;2023-07-20T02:36:16;65961.13;;;-143.95;100.00
63552;BME280;49698;48.072;7.800;2023-07-20T02:38:45;65961.13;;;-143.95;100.00
63552;BME280;49698;48.072;7.800;2023-07-20T02:41:13;65961.13;;;-143.95;100.00
63552;BME280;49698;48.072;7.800;2023-07-20T02:43:41;65961.13;;;-143.95;100.00
63552;BME280;49698;48.072;7.800;2023-07-20T02:46:09;65961.13;;;-143.95;100.00
63552;BME280;49698;48.072;7.800;2023-07-20T02:48:37;65961.13;;;-143.95;100.00
63552;BME280;49698;48.072;7.800;2023-07-20T02:51:06;65961.13;;;-143.95;100.00
63552;BME280;49698;48.072;7.800;2023-07-20T02:53:37;65961.13;;;-143.95;100.00
63552;BME280;49698;48.072;7.800;2023-07-20T02:56:05;65961.13;;;-143.95;100.00
63552;BME280;49698;48.072;7.800;2023-07-20T02:58:34;65961.13;;;-143.95;100.00
63552;BME280;49698;48.072;7.800;2023-07-20T03:01:03;65961.13;;;-143.95;100.00
63552;BME280;49698;48.072;7.800;2023-07-20T03:03:32;65961.13;;;-143.95;100.00
63552;BME280;49698;48.072;7.800;2023-07-20T03:06:05;65961.13;;;-143.95;100.00
63552;BME280;49698;48.072;7.800;2023-07-20T03:08:37;65961.13;;;-143.95;100.00
63552;BME280;49698;48.072;7.800;2023-07-20T03:11:05;65961.13;;;-143.95;100.00
63552;BME280;49698;48.072;7.800;2023-07-20T03:13:34;65961.13;;;-143.95;100.00
63552;BME280;49698;48.072;7.800;2023-07-20T03:16:02;65961.13;;;-143.95;100.00
63552;BME280;49698;48.072;7.800;2023-07-20T03:18:30;65961.13;;;-143.95;100.00
63552;BME280;49698;48.072;7.800;2023-07-20T03:20:58;65961.13;;;-143.95;100.00
63552;BME280;49698;48.072;7.800;2023-07-20T03:23:27;65961.13;;;-143.95;100.00
63552;BME280;49698;48.072;7.800;2023-07-20T03:25:57;65961.13;;;-143.95;100.00
63552;BME280;49698;48.072;7.800;2023-07-20T03:28:25;65961.13;;;-143.95;100.00
63552;BME280;49698;48.072;7.800;2023-07-20T03:30:53;65961.13;;;-143.95;100.00
63552;BME280;49698;48.072;7.800;2023-07-20T03:33:25;65961.13;;;-143.95;100.00
63552;BME280;49698;48.072;7.800;2023-07-20T03:35:59;65961.13;;;-143.95;100.00
63552;BME280;49698;48.072;7.800;2023-07-20T03:38:29;65961.13;;;-143.95;100.00
63552;BME280;49698;48.072;7.800;2023-07-20T03:41:00;65961.13;;;-143.95;100.00
63552;BME280;49698;48.072;7.800;2023-07-20T03:43:28;65961.13;;;-143.95;100.00
63552;BME280;49698;48.072;7.800;2023-07-20T03:45:56;65961.13;;;-143.95;100.00
63552;BME280;49698;48.072;7.800;2023-07-20T03:48:24;65961.13;;;-143.95;100.00
63552;BME280;49698;48.072;7.800;2023-07-20T03:50:54;65961.13;;;-143.95;100.00
63552;BME280;49698;48.072;7.800;2023-07-20T03:53:23;65961.13;;;-143.95;100.00
63552;BME280;49698;48.072;7.800;2023-07-20T03:55:52;65961.13;;;-143.95;100.00
63552;BME280;49698;48.072;7.800;2023-07-20T03:58:22;65961.13;;;-143.95;100.00
63552;BME280;49698;48.072;7.800;2023-07-20T04:00:51;65961.13;;;-143.95;100.00
63552;BME280;49698;48.072;7.800;2023-07-20T04:03:19;65961.13;;;-143.95;100.00
63552;BME280;49698;48.072;7.800;2023-07-20T04:05:49;65961.13;;;-143.95;100.00
63552;BME280;49698;48.072;7.800;2023-07-20T04:08:18;65961.13;;;-143.95;100.00
63552;BME280;49698;48.072;7.800;2023-07-20T04:10:46;65961.13;;;-143.95;100.00
63552;BME280;49698;48.072;7.800;2023-07-20T04:13:14;65961.13;;;-143.95;100.00
63552;BME280;49698;48.072;7.800;2023-07-20T04:15:44;65961.13;;;-143.95;100.00
63552;BME280;49698;48.072;7.800;2023-07-20T04:18:12;65961.13;;;-143.95;100.00
63552;BME280;49698;48.072;7.800;2023-07-20T04:20:40;65961.13;;;-143.95;100.00
63552;BME280;49698;48.072;7.800;2023-07-20T04:23:09;65961.13;;;-143.95;100.00
63552;BME280;49698;48.072;7.800;2023-07-20T04:25:39;65961.13;;;-143.95;100.00
63552;BME280;49698;48.072;7.800;2023-07-20T04:28:11;65961.13;;;-143.95;100.00
63552;BME280;49698;48.072;7.800;2023-07-20T04:30:48;65961.13;;;-143.95;100.00
63552;BME280;49698;48.072;7.800;2023-07-20T04:33:17;65961.13;;;-143.95;100.00
63552;BME280;49698;48.072;7.800;2023-07-20T04:35:48;65961.13;;;-143.95;100.00
63552;BME280;49698;48.072;7.800;2023-07-20T04:38:24;65961.13;;;-143.95;100.00
63552;BME280;49698;48.072;7.800;2023-07-20T04:41:01;65961.13;;;-143.95;100.00
63552;BME280;49698;48.072;7.800;2023-07-20T04:43:33;65961.13;;;-143.95;100.00
63552;BME280;49698;48.072;7.800;2023-07-20T04:46:02;65961.13;;;-143.95;100.00
63552;BME280;49698;48.072;7.800;2023-07-20T04:48:33;65961.13;;;-143.95;100.00
63552;BME280;49698;48.072;7.800;2023-07-20T04:51:01;65961.13;;;-143.95;100.00
63552;BME280;49698;48.072;7.800;2023-07-20T04:53:29;65961.13;;;-143.95;100.00
63552;BME280;49698;48.072;7.800;2023-07-20T04:55:58;65961.13;;;-143.95;100.00
63552;BME280;49698;48.072;7.800;2023-07-20T04:58:28;65961.13;;;-143.95;100.00
63552;BME280;49698;48.072;7.800;2023-07-20T05:00:56;65961.13;;;-143.95;100.00
63552;BME280;49698;48.072;7.800;2023-07-20T05:03:26;65961.13;;;-143.95;100.00
63552;BME280;49698;48.072;7.800;2023-07-20T05:05:54;65961.13;;;-143.95;100.00
63552;BME280;49698;48.072;7.800;2023-07-20T05:28:42;99337.25;;;18.04;77.17
63552;BME280;49698;48.072;7.800;2023-07-20T05:31:10;99337.56;;;18.03;77.62
63552;BME280;49698;48.072;7.800;2023-07-20T05:33:39;99342.22;;;18.02;78.12
63552;BME280;49698;48.072;7.800;2023-07-20T05:36:07;99333.72;;;18.04;78.14
63552;BME280;49698;48.072;7.800;2023-07-20T05:38:36;99328.75;;;18.06;78.32
63552;BME280;49698;48.072;7.800;2023-07-20T05:41:05;99333.97;;;18.11;78.58
63552;BME280;49698;48.072;7.800;2023-07-20T05:43:37;99340.31;;;18.15;78.71
63552;BME280;49698;48.072;7.800;2023-07-20T05:46:06;99337.41;;;18.20;78.60
63552;BME280;49698;48.072;7.800;2023-07-20T05:48:34;99335.28;;;18.26;78.78
63552;BME280;49698;48.072;7.800;2023-07-20T05:51:03;99341.31;;;18.31;78.73
63552;BME280;49698;48.072;7.800;2023-07-20T05:53:31;99347.31;;;18.37;78.54
63552;BME280;49698;48.072;7.800;2023-07-20T05:55:59;99345.66;;;18.45;77.92
63552;BME280;49698;48.072;7.800;2023-07-20T05:58:27;99347.03;;;18.51;77.79
63552;BME280;49698;48.072;7.800;2023-07-20T06:00:55;99344.41;;;18.54;76.92
63552;BME280;49698;48.072;7.800;2023-07-20T06:03:25;99348.06;;;18.58;76.97
63552;BME280;49698;48.072;7.800;2023-07-20T06:05:59;99348.63;;;18.64;76.87
63552;BME280;49698;48.072;7.800;2023-07-20T06:08:27;99348.91;;;18.71;75.83
63552;BME280;49698;48.072;7.800;2023-07-20T06:10:56;99344.81;;;18.77;74.98
63552;BME280;49698;48.072;7.800;2023-07-20T06:13:24;99348.13;;;18.83;74.53
63552;BME280;49698;48.072;7.800;2023-07-20T06:15:52;99351.88;;;18.91;73.41
63552;BME280;49698;48.072;7.800;2023-07-20T06:18:20;99343.94;;;18.98;72.98
63552;BME280;49698;48.072;7.800;2023-07-20T06:20:50;99345.28;;;19.04;72.47
63552;BME280;49698;48.072;7.800;2023-07-20T06:23:19;99339.63;;;19.09;71.80
63552;BME280;49698;48.072;7.800;2023-07-20T06:25:47;99350.31;;;19.14;71.14
63552;BME280;49698;48.072;7.800;2023-07-20T06:28:15;99346.13;;;19.17;70.55
63552;BME280;49698;48.072;7.800;2023-07-20T06:30:44;99342.34;;;19.21;69.73
63552;BME280;49698;48.072;7.800;2023-07-20T06:33:13;99340.97;;;19.27;68.80
63552;BME280;49698;48.072;7.800;2023-07-20T06:35:41;99342.34;;;19.34;67.96
63552;BME280;49698;48.072;7.800;2023-07-20T06:38:11;99347.56;;;19.39;67.74
63552;BME280;49698;48.072;7.800;2023-07-20T06:40:42;99340.75;;;19.45;67.63
63552;BME280;49698;48.072;7.800;2023-07-20T06:43:10;99340.16;;;19.51;67.30
63552;BME280;49698;48.072;7.800;2023-07-20T06:45:42;99338.41;;;19.59;67.17
63552;BME280;49698;48.072;7.800;2023-07-20T06:48:10;99338.22;;;19.64;66.74
63552;BME280;49698;48.072;7.800;2023-07-20T06:50:39;99345.84;;;19.71;66.83
63552;BME280;49698;48.072;7.800;2023-07-20T06:53:07;99344.78;;;19.75;66.47
63552;BME280;49698;48.072;7.800;2023-07-20T06:55:36;99344.53;;;19.81;66.25
63552;BME280;49698;48.072;7.800;2023-07-20T06:58:05;99342.03;;;19.88;66.29
63552;BME280;49698;48.072;7.800;2023-07-20T07:00:33;99342.25;;;19.95;65.91
63552;BME280;49698;48.072;7.800;2023-07-20T07:03:02;99349.81;;;20.01;65.79
63552;BME280;49698;48.072;7.800;2023-07-20T07:05:30;99345.69;;;20.08;64.98
63552;BME280;49698;48.072;7.800;2023-07-20T07:08:03;99352.84;;;20.12;64.09
63552;BME280;49698;48.072;7.800;2023-07-20T07:10:31;99345.13;;;20.14;63.32
63552;BME280;49698;48.072;7.800;2023-07-20T07:13:01;99343.28;;;20.18;63.37
63552;BME280;49698;48.072;7.800;2023-07-20T07:15:29;99347.31;;;20.24;62.72
63552;BME280;49698;48.072;7.800;2023-07-20T07:17:58;99347.09;;;20.30;61.61
63552;BME280;49698;48.072;7.800;2023-07-20T07:20:27;99347.63;;;20.35;61.68
63552;BME280;49698;48.072;7.800;2023-07-20T07:22:55;99347.44;;;20.44;60.94
63552;BME280;49698;48.072;7.800;2023-07-20T07:25:24;99346.88;;;20.50;60.65
63552;BME280;49698;48.072;7.800;2023-07-20T07:27:54;99346.28;;;20.57;60.52
63552;BME280;49698;48.072;7.800;2023-07-20T07:30:24;99344.16;;;20.66;60.29
63552;BME280;49698;48.072;7.800;2023-07-20T07:32:54;99343.75;;;20.80;60.48
63552;BME280;49698;48.072;7.800;2023-07-20T07:35:22;99346.56;;;20.99;60.12
63552;BME280;49698;48.072;7.800;2023-07-20T07:37:50;99351.22;;;21.15;59.80
63552;BME280;49698;48.072;7.800;2023-07-20T07:40:29;99346.53;;;21.31;59.37
63552;BME280;49698;48.072;7.800;2023-07-20T07:42:58;99349.69;;;21.49;58.37
63552;BME280;49698;48.072;7.800;2023-07-20T07:45:27;99346.47;;;21.63;57.65
63552;BME280;49698;48.072;7.800;2023-07-20T07:47:57;99339.00;;;21.79;56.86
63552;BME280;49698;48.072;7.800;2023-07-20T07:50:25;99337.00;;;21.95;55.94
63552;BME280;49698;48.072;7.800;2023-07-20T07:52:54;99341.22;;;22.12;55.31
63552;BME280;49698;48.072;7.800;2023-07-20T07:55:22;99344.69;;;22.29;54.90
63552;BME280;49698;48.072;7.800;2023-07-20T07:57:50;99342.97;;;22.40;54.42
63552;BME280;49698;48.072;7.800;2023-07-20T08:00:19;99339.50;;;22.43;53.28
63552;BME280;49698;48.072;7.800;2023-07-20T08:02:50;99340.22;;;22.40;53.04
63552;BME280;49698;48.072;7.800;2023-07-20T08:05:18;99334.75;;;22.40;53.02
63552;BME280;49698;48.072;7.800;2023-07-20T08:07:46;99333.78;;;22.52;52.74
63552;BME280;49698;48.072;7.800;2023-07-20T08:10:14;99335.84;;;22.58;52.32
63552;BME280;49698;48.072;7.800;2023-07-20T08:12:42;99338.66;;;22.62;52.36
63552;BME280;49698;48.072;7.800;2023-07-20T08:15:11;99330.25;;;22.74;52.02
63552;BME280;49698;48.072;7.800;2023-07-20T08:17:41;99331.78;;;22.94;51.88
63552;BME280;49698;48.072;7.800;2023-07-20T08:20:13;99338.28;;;23.09;51.04
63552;BME280;49698;48.072;7.800;2023-07-20T08:22:43;99334.97;;;23.23;50.48
63552;BME280;49698;48.072;7.800;2023-07-20T08:25:13;99332.06;;;23.39;50.43
63552;BME280;49698;48.072;7.800;2023-07-20T08:27:41;99333.44;;;23.52;49.93
63552;BME280;49698;48.072;7.800;2023-07-20T08:30:10;99336.94;;;23.79;49.44
63552;BME280;49698;48.072;7.800;2023-07-20T08:32:42;99335.72;;;24.07;49.30
63552;BME280;49698;48.072;7.800;2023-07-20T08:35:18;99337.41;;;24.19;48.36
63552;BME280;49698;48.072;7.800;2023-07-20T08:37:58;99329.69;;;24.28;48.19
63552;BME280;49698;48.072;7.800;2023-07-20T08:40:39;99335.66;;;24.37;47.65
63552;BME280;49698;48.072;7.800;2023-07-20T08:43:08;99329.84;;;24.42;47.96
63552;BME280;49698;48.072;7.800;2023-07-20T08:45:44;99323.28;;;24.54;47.79
63552;BME280;49698;48.072;7.800;2023-07-20T08:48:13;99326.88;;;24.61;47.67
63552;BME280;49698;48.072;7.800;2023-07-20T08:50:43;99326.91;;;24.65;47.56
63552;BME280;49698;48.072;7.800;2023-07-20T08:53:14;99323.88;;;24.77;47.46
63552;BME280;49698;48.072;7.800;2023-07-20T08:55:45;99323.28;;;24.98;47.11
63552;BME280;49698;48.072;7.800;2023-07-20T08:58:18;99323.38;;;25.12;46.16
63552;BME280;49698;48.072;7.800;2023-07-20T09:00:47;99318.38;;;25.25;45.29
63552;BME280;49698;48.072;7.800;2023-07-20T09:03:19;99320.38;;;25.32;45.09
63552;BME280;49698;48.072;7.800;2023-07-20T09:05:49;99316.47;;;25.36;44.95
63552;BME280;49698;48.072;7.800;2023-07-20T09:08:20;99317.66;;;25.39;44.66
63552;BME280;49698;48.072;7.800;2023-07-20T09:10:48;99314.16;;;25.42;44.02
63552;BME280;49698;48.072;7.800;2023-07-20T09:13:16;99314.97;;;25.50;44.46
63552;BME280;49698;48.072;7.800;2023-07-20T09:15:53;99311.47;;;25.56;44.08
63552;BME280;49698;48.072;7.800;2023-07-20T09:18:25;99313.44;;;25.52;44.28
63552;BME280;49698;48.072;7.800;2023-07-20T09:20:58;99311.81;;;25.51;43.82
63552;BME280;49698;48.072;7.800;2023-07-20T09:23:31;99313.03;;;25.54;42.91
63552;BME280;49698;48.072;7.800;2023-07-20T09:26:00;99306.31;;;25.48;43.30
63552;BME280;49698;48.072;7.800;2023-07-20T09:28:28;99302.78;;;25.51;42.81
63552;BME280;49698;48.072;7.800;2023-07-20T09:30:56;99300.44;;;25.53;42.87
63552;BME280;49698;48.072;7.800;2023-07-20T09:33:25;99296.91;;;25.52;43.28
63552;BME280;49698;48.072;7.800;2023-07-20T09:36:01;99286.31;;;25.58;42.49
63552;BME280;49698;48.072;7.800;2023-07-20T09:38:49;99282.41;;;25.62;42.04
63552;BME280;49698;48.072;7.800;2023-07-20T09:41:21;99289.88;;;25.62;42.04
63552;BME280;49698;48.072;7.800;2023-07-20T09:43:53;99295.38;;;25.66;42.18
63552;BME280;49698;48.072;7.800;2023-07-20T09:46:22;99282.03;;;25.68;42.10
63552;BME280;49698;48.072;7.800;2023-07-20T09:48:55;99277.31;;;25.68;42.23
63552;BME280;49698;48.072;7.800;2023-07-20T09:51:28;99265.53;;;25.68;42.48
63552;BME280;49698;48.072;7.800;2023-07-20T09:53:59;99266.69;;;25.70;42.92
63552;BME280;49698;48.072;7.800;2023-07-20T09:56:29;99261.63;;;25.76;42.92
63552;BME280;49698;48.072;7.800;2023-07-20T09:58:58;99264.03;;;25.84;42.44
63552;BME280;49698;48.072;7.800;2023-07-20T10:01:26;99256.97;;;25.91;42.17
63552;BME280;49698;48.072;7.800;2023-07-20T10:03:58;99246.78;;;25.98;42.20
63552;BME280;49698;48.072;7.800;2023-07-20T10:06:30;99247.56;;;26.02;41.99
63552;BME280;49698;48.072;7.800;2023-07-20T10:09:02;99247.94;;;26.04;41.70
63552;BME280;49698;48.072;7.800;2023-07-20T10:11:32;99245.63;;;26.14;42.02
63552;BME280;49698;48.072;7.800;2023-07-20T10:14:03;99247.97;;;26.19;41.58
63552;BME280;49698;48.072;7.800;2023-07-20T10:16:35;99244.81;;;26.17;41.52
63552;BME280;49698;48.072;7.800;2023-07-20T10:19:07;99236.56;;;26.06;41.53
63552;BME280;49698;48.072;7.800;2023-07-20T10:21:44;99227.06;;;25.96;41.83
63552;BME280;49698;48.072;7.800;2023-07-20T10:24:17;99226.69;;;26.05;41.97
63552;BME280;49698;48.072;7.800;2023-07-20T10:26:46;99235.78;;;26.20;41.95
63552;BME280;49698;48.072;7.800;2023-07-20T10:29:14;99233.41;;;26.36;41.84
63552;BME280;49698;48.072;7.800;2023-07-20T10:31:54;99238.16;;;26.43;41.80
63552;BME280;49698;48.072;7.800;2023-07-20T10:34:26;99230.69;;;26.47;41.94
63552;BME280;49698;48.072;7.800;2023-07-20T10:37:02;99229.13;;;26.49;41.86
63552;BME280;49698;48.072;7.800;2023-07-20T10:39:32;99231.06;;;26.56;41.29
63552;BME280;49698;48.072;7.800;2023-07-20T10:42:01;99225.97;;;26.62;40.92
63552;BME280;49698;48.072;7.800;2023-07-20T10:44:30;99220.88;;;26.56;40.87
63552;BME280;49698;48.072;7.800;2023-07-20T10:47:02;99221.66;;;26.50;41.03
63552;BME280;49698;48.072;7.800;2023-07-20T10:49:33;99218.50;;;26.55;41.04
63552;BME280;49698;48.072;7.800;2023-07-20T10:52:05;99216.13;;;26.61;40.87
63552;BME280;49698;48.072;7.800;2023-07-20T10:54:46;99220.06;;;26.67;40.40
63552;BME280;49698;48.072;7.800;2023-07-20T10:57:27;99219.25;;;26.84;40.10
63552;BME280;49698;48.072;7.800;2023-07-20T11:00:10;99211.75;;;26.88;40.03
63552;BME280;49698;48.072;7.800;2023-07-20T11:02:43;99215.31;;;26.78;40.24
63552;BME280;49698;48.072;7.800;2023-07-20T11:05:33;99216.13;;;26.53;40.15
63552;BME280;49698;48.072;7.800;2023-07-20T11:08:10;99198.78;;;26.28;40.54
63552;BME280;49698;48.072;7.800;2023-07-20T11:10:38;99202.31;;;26.07;40.25
63552;BME280;49698;48.072;7.800;2023-07-20T11:13:20;99200.72;;;25.95;40.26
63552;BME280;49698;48.072;7.800;2023-07-20T11:16:02;99197.16;;;26.02;40.40
63552;BME280;49698;48.072;7.800;2023-07-20T11:18:35;99193.28;;;26.06;39.84
63552;BME280;49698;48.072;7.800;2023-07-20T11:21:08;99191.66;;;26.02;39.59
63552;BME280;49698;48.072;7.800;2023-07-20T11:23:39;99194.44;;;25.98;40.11
63552;BME280;49698;48.072;7.800;2023-07-20T11:26:10;99190.09;;;25.97;40.05
63552;BME280;49698;48.072;7.800;2023-07-20T11:28:58;99183.41;;;26.05;40.26
63552;BME280;49698;48.072;7.800;2023-07-20T11:31:28;99179.88;;;26.12;40.08
63552;BME280;49698;48.072;7.800;2023-07-20T11:34:00;99175.56;;;26.18;39.81
63552;BME280;49698;48.072;7.800;2023-07-20T11:36:31;99173.59;;;26.26;40.02
63552;BME280;49698;48.072;7.800;2023-07-20T11:39:04;99170.44;;;26.38;39.64
63552;BME280;49698;48.072;7.800;2023-07-20T11:41:34;99161.78;;;26.36;39.42
63552;BME280;49698;48.072;7.800;2023-07-20T11:44:03;99162.56;;;26.40;39.97
63552;BME280;49698;48.072;7.800;2023-07-20T11:46:31;99155.06;;;26.44;40.03
63552;BME280;49698;48.072;7.800;2023-07-20T11:49:00;99161.38;;;26.55;39.72
63552;BME280;49698;48.072;7.800;2023-07-20T11:51:28;99154.66;;;26.64;39.90
63552;BME280;49698;48.072;7.800;2023-07-20T11:54:01;99157.84;;;26.66;39.61
63552;BME280;49698;48.072;7.800;2023-07-20T11:56:31;99156.28;;;26.65;39.28
63552;BME280;49698;48.072;7.800;2023-07-20T11:58:59;99154.66;;;26.64;39.18
63552;BME280;49698;48.072;7.800;2023-07-20T12:01:29;99151.91;;;26.64;39.16
63552;BME280;49698;48.072;7.800;2023-07-20T12:04:04;99148.38;;;26.67;39.21
63552;BME280;49698;48.072;7.800;2023-07-20T12:06:33;99148.38;;;26.70;38.44
63552;BME280;49698;48.072;7.800;2023-07-20T12:09:02;99140.50;;;26.69;38.41
63552;BME280;49698;48.072;7.800;2023-07-20T12:11:32;99136.91;;;26.75;38.36
63552;BME280;49698;48.072;7.800;2023-07-20T12:14:02;99131.81;;;26.81;38.43
63552;BME280;49698;48.072;7.800;2023-07-20T12:16:37;99127.84;;;26.86;37.82
63552;BME280;49698;48.072;7.800;2023-07-20T12:19:07;99130.19;;;26.91;37.60
63552;BME280;49698;48.072;7.800;2023-07-20T12:21:36;99128.19;;;26.98;37.97
63552;BME280;49698;48.072;7.800;2023-07-20T12:24:05;99130.94;;;26.98;38.29
63552;BME280;49698;48.072;7.800;2023-07-20T12:26:35;99130.94;;;26.95;38.30
63552;BME280;49698;48.072;7.800;2023-07-20T12:29:04;99119.16;;;26.91;38.64
63552;BME280;49698;48.072;7.800;2023-07-20T12:31:34;99126.63;;;26.97;38.86
63552;BME280;49698;48.072;7.800;2023-07-20T12:34:04;99119.50;;;27.03;38.87
63552;BME280;49698;48.072;7.800;2023-07-20T12:36:32;99116.75;;;27.07;39.12
63552;BME280;49698;48.072;7.800;2023-07-20T12:39:01;99115.56;;;27.15;39.21
63552;BME280;49698;48.072;7.800;2023-07-20T12:41:30;99107.66;;;27.17;39.04
63552;BME280;49698;48.072;7.800;2023-07-20T12:44:03;99113.59;;;27.05;39.28
63552;BME280;49698;48.072;7.800;2023-07-20T12:46:32;99103.00;;;26.89;39.19
63552;BME280;49698;48.072;7.800;2023-07-20T12:49:02;99100.31;;;26.71;38.74
63552;BME280;49698;48.072;7.800;2023-07-20T12:51:30;99094.81;;;26.68;38.95
63552;BME280;49698;48.072;7.800;2023-07-20T12:53:58;99093.22;;;26.70;39.02
63552;BME280;49698;48.072;7.800;2023-07-20T12:56:26;99095.56;;;26.75;39.17
63552;BME280;49698;48.072;7.800;2023-07-20T12:58:57;99090.44;;;26.81;39.07
63552;BME280;49698;48.072;7.800;2023-07-20T13:01:26;99094.75;;;26.89;39.11
63552;BME280;49698;48.072;7.800;2023-07-20T13:03:55;99081.31;;;26.95;38.65
63552;BME280;49698;48.072;7.800;2023-07-20T13:06:26;99086.78;;;27.02;38.25
63552;BME280;49698;48.072;7.800;2023-07-20T13:08:54;99078.13;;;27.03;37.34
63552;BME280;49698;48.072;7.800;2023-07-20T13:11:25;99074.19;;;27.01;37.54
63552;BME280;49698;48.072;7.800;2023-07-20T13:13:53;99080.50;;;27.01;37.39
63552;BME280;49698;48.072;7.800;2023-07-20T13:16:21;99075.38;;;27.03;37.02
63552;BME280;49698;48.072;7.800;2023-07-20T13:18:50;99078.50;;;27.05;37.33
63552;BME280;49698;48.072;7.800;2023-07-20T13:21:19;99077.72;;;27.05;37.36
63552;BME280;49698;48.072;7.800;2023-07-20T13:23:49;99071.09;;;26.95;37.47
63552;BME280;49698;48.072;7.800;2023-07-20T13:26:17;99072.69;;;26.89;37.73